Time;durP1;ratioP1;P1;durP2;ratioP2;P2;SDS_P1;SDS_P2;PMS_P1;PMS_P2;Temp;Humidity;BMP_temperature;BMP_pressure;BME280_temperature;BME280_humidity;BME280_pressure;Samples;Min_cycle;Max_cycle;Signal;HPM_P1;HPM_P2
2022/09/09 00:01:47;;;;;;;13.57;3.22;;;;;;;15.84;76.42;96053.22;5040287;28;20055;-77
2022/09/09 00:04:21;;;;;;;14.48;3.67;;;;;;;15.79;76.37;96053.50;5047377;28;20072;-77
2022/09/09 00:06:57;;;;;;;11.82;2.83;;;;;;;15.72;76.45;96053.34;5039653;28;20098;-76
2022/09/09 00:09:27;;;;;;;9.18;2.78;;;;;;;15.71;76.42;96054.50;5013206;28;20378;-76
2022/09/09 00:12:03;;;;;;;9.25;2.58;;;;;;;15.61;76.79;96055.03;5034984;28;20047;-77
2022/09/09 00:14:38;;;;;;;9.30;2.53;;;;;;;15.55;77.47;96053.69;5044076;28;20053;-78
2022/09/09 00:17:12;;;;;;;11.48;2.95;;;;;;;15.50;77.39;96054.78;5041487;28;20050;-77
2022/09/09 00:19:50;;;;;;;9.70;2.75;;;;;;;15.53;77.33;96051.31;5040416;28;20045;-76
2022/09/09 00:22:18;;;;;;;13.98;3.38;;;;;;;15.54;77.52;96054.88;5043276;28;20049;-77
2022/09/09 00:24:46;;;;;;;13.05;3.30;;;;;;;15.57;77.84;96054.94;5031602;28;20045;-78
2022/09/09 00:27:20;;;;;;;14.18;3.70;;;;;;;15.58;77.59;96055.75;5032882;28;20037;-76
2022/09/09 00:29:48;;;;;;;;;;;;;;;15.57;77.74;96054.94;5036760;28;20404;-77
2022/09/09 00:32:19;;;;;;;13.02;3.35;;;;;;;15.52;77.60;96057.97;5039129;28;20011;-76
2022/09/09 00:34:50;;;;;;;11.65;3.33;;;;;;;15.43;77.40;96059.31;5040186;28;20041;-76
2022/09/09 00:37:19;;;;;;;14.23;3.47;;;;;;;15.34;77.19;96059.47;5040504;28;20044;-76
2022/09/09 00:39:47;;;;;;;7.63;2.50;;;;;;;15.30;77.25;96053.94;5040157;28;20676;-77
2022/09/09 00:42:17;;;;;;;15.38;3.78;;;;;;;15.25;77.21;96048.72;5038356;28;20096;-76
2022/09/09 00:44:56;;;;;;;10.27;2.63;;;;;;;15.22;76.96;96049.41;5042528;28;20045;-77
2022/09/09 00:47:45;;;;;;;14.45;3.60;;;;;;;15.30;77.51;96053.94;5040994;28;20400;-77
2022/09/09 00:50:24;;;;;;;15.95;3.95;;;;;;;15.27;77.33;96051.88;5043518;28;20059;-77
2022/09/09 00:53:02;;;;;;;11.25;2.88;;;;;;;15.21;77.32;96047.84;5040618;28;20071;-77
2022/09/09 00:55:40;;;;;;;12.23;2.80;;;;;;;15.19;77.34;96049.31;5035294;28;20046;-76
2022/09/09 00:58:09;;;;;;;9.35;2.67;;;;;;;15.21;77.32;96056.06;5040557;28;20091;-75
2022/09/09 01:00:42;;;;;;;12.90;3.25;;;;;;;15.20;77.26;96050.94;5041486;28;20045;-76
2022/09/09 01:03:28;;;;;;;10.20;2.72;;;;;;;15.19;76.73;96060.28;5042289;28;20049;-77
2022/09/09 01:06:04;;;;;;;10.45;2.92;;;;;;;15.25;77.10;96059.69;5046337;28;20045;-77
2022/09/09 01:09:03;;;;;;;9.93;2.47;;;;;;;15.19;77.08;96050.16;5035791;28;20037;-77
2022/09/09 01:11:39;;;;;;;8.93;2.20;;;;;;;15.27;76.90;96054.63;5047512;28;20048;-77
2022/09/09 01:14:25;;;;;;;16.08;3.63;;;;;;;15.23;76.89;96056.50;5034918;28;20408;-76
2022/09/09 01:16:57;;;;;;;11.55;3.00;;;;;;;15.24;76.82;96052.59;5037741;28;20040;-76
2022/09/09 01:19:39;;;;;;;11.32;2.63;;;;;;;15.22;77.12;96048.63;5037566;28;20432;-78
2022/09/09 01:22:14;;;;;;;14.90;3.38;;;;;;;15.16;77.10;96048.09;5045749;28;20568;-79
2022/09/09 01:24:47;;;;;;;12.55;3.20;;;;;;;15.18;77.08;96047.72;5040637;28;20041;-79
2022/09/09 01:27:17;;;;;;;9.27;2.42;;;;;;;15.25;77.09;96047.94;5037960;28;20045;-79
2022/09/09 01:29:44;;;;;;;11.07;2.85;;;;;;;15.16;76.69;96052.78;5037074;28;20419;-77
2022/09/09 01:32:45;;;;;;;10.45;2.83;;;;;;;15.17;76.71;96055.16;5041663;28;20046;-76
2022/09/09 01:35:16;;;;;;;13.05;3.40;;;;;;;15.21;76.34;96050.56;4958368;28;20049;-78
2022/09/09 01:37:43;;;;;;;13.18;3.17;;;;;;;15.20;76.43;96049.00;4959343;28;20114;-76
2022/09/09 01:40:10;;;;;;;12.35;3.30;;;;;;;15.07;76.49;96050.22;4999183;28;20410;-76
2022/09/09 01:42:38;;;;;;;9.82;2.55;;;;;;;15.13;76.68;96057.03;5044273;28;20049;-79
2022/09/09 01:45:06;;;;;;;9.63;2.47;;;;;;;15.09;76.75;96053.41;5041109;28;20047;-78
2022/09/09 01:47:32;;;;;;;17.60;3.67;;;;;;;15.11;77.39;96042.88;5041200;28;20120;-76
2022/09/09 01:50:00;;;;;;;10.35;2.83;;;;;;;15.17;76.74;96048.88;5037483;28;20076;-76
2022/09/09 01:52:27;;;;;;;10.35;2.50;;;;;;;15.22;77.10;96054.91;5039257;28;20391;-78
2022/09/09 01:54:53;;;;;;;10.98;2.63;;;;;;;15.24;77.08;96052.59;5040546;28;20055;-78
2022/09/09 01:57:25;;;;;;;13.00;3.65;;;;;;;15.26;76.97;96044.81;5038833;28;20174;-76
2022/09/09 02:00:06;;;;;;;12.77;2.75;;;;;;;15.23;77.16;96051.00;5038797;28;20041;-76
2022/09/09 02:02:37;;;;;;;7.95;2.30;;;;;;;15.26;77.09;96053.03;5043531;28;20041;-78
2022/09/09 02:05:18;;;;;;;7.53;1.85;;;;;;;15.29;77.25;96046.03;5036216;28;20484;-78
2022/09/09 02:07:48;;;;;;;8.82;2.28;;;;;;;15.32;77.16;96048.88;5033491;28;20041;-79
2022/09/09 02:10:25;;;;;;;14.95;3.65;;;;;;;15.32;77.50;96048.88;5031923;28;20037;-79
2022/09/09 02:12:56;;;;;;;14.18;2.88;;;;;;;15.33;77.35;96050.47;5038013;28;20045;-78
2022/09/09 02:15:31;;;;;;;12.85;2.97;;;;;;;15.21;77.60;96045.09;5048526;28;20049;-76
2022/09/09 02:17:59;;;;;;;9.90;2.33;;;;;;;14.96;78.15;96051.91;5041699;28;20047;-78
2022/09/09 02:20:27;;;;;;;10.30;2.88;;;;;;;14.98;78.11;96049.59;5037361;28;20055;-78
2022/09/09 02:22:54;;;;;;;12.05;2.72;;;;;;;14.59;79.16;96050.19;5030348;28;20047;-79
2022/09/09 02:25:25;;;;;;;12.43;3.10;;;;;;;14.59;79.74;96054.88;5031350;28;20050;-76
2022/09/09 02:27:52;;;;;;;12.90;2.63;;;;;;;14.48;80.32;96051.06;5044931;28;20048;-76
2022/09/09 02:30:20;;;;;;;16.33;3.75;;;;;;;14.59;80.31;96057.59;5043236;28;20052;-77
2022/09/09 02:32:51;;;;;;;11.85;2.42;;;;;;;14.65;80.25;96045.25;5031249;28;20037;-76
2022/09/09 02:35:21;;;;;;;12.45;3.38;;;;;;;14.72;80.10;96048.19;5043131;28;20045;-77
2022/09/09 02:37:52;;;;;;;9.60;2.72;;;;;;;14.79;79.85;96047.56;5036273;28;20051;-78
2022/09/09 02:40:18;;;;;;;19.38;4.10;;;;;;;14.88;79.80;96046.25;5041502;28;20061;-78
2022/09/09 02:42:47;;;;;;;13.05;3.05;;;;;;;14.91;79.99;96041.19;5046785;28;20072;-79
2022/09/09 02:45:18;;;;;;;11.73;3.28;;;;;;;14.99;80.01;96034.75;5042074;28;20056;-78
2022/09/09 02:47:54;;;;;;;12.70;3.15;;;;;;;15.05;79.86;96041.56;5034884;28;20037;-78
2022/09/09 02:50:24;;;;;;;19.08;4.22;;;;;;;15.08;78.25;96043.56;5040159;28;20039;-76
2022/09/09 02:53:09;;;;;;;11.27;2.70;;;;;;;15.03;78.89;96047.38;5040313;28;20055;-76
2022/09/09 02:55:42;;;;;;;11.85;2.97;;;;;;;14.90;79.12;96048.63;5036800;28;20049;-77
2022/09/09 02:58:11;;;;;;;13.68;3.25;;;;;;;14.98;79.13;96044.09;5042709;28;20050;-77
2022/09/09 03:00:39;;;;;;;11.30;2.63;;;;;;;15.03;79.40;96041.88;5035226;28;20421;-76
2022/09/09 03:03:08;;;;;;;12.48;2.67;;;;;;;15.00;79.33;96036.34;5034356;28;20041;-78
2022/09/09 03:05:35;;;;;;;12.52;3.13;;;;;;;15.03;79.22;96025.44;5034452;28;20089;-78
2022/09/09 03:08:02;;;;;;;11.00;2.90;;;;;;;15.05;79.04;96022.38;5045267;28;20041;-75
2022/09/09 03:10:29;;;;;;;10.18;2.72;;;;;;;15.01;78.71;96026.97;5043806;28;20453;-76
2022/09/09 03:12:56;;;;;;;11.70;3.05;;;;;;;15.04;78.26;96026.25;5040362;28;20045;-76
2022/09/09 03:15:22;;;;;;;10.48;2.65;;;;;;;15.07;78.08;96020.06;5033672;28;20439;-76
2022/09/09 03:17:49;;;;;;;12.00;3.03;;;;;;;15.11;78.19;96027.22;5038763;28;20144;-76
2022/09/09 03:20:17;;;;;;;22.33;5.05;;;;;;;15.16;78.36;96017.94;5041668;28;20044;-76
2022/09/09 03:22:44;;;;;;;8.85;2.50;;;;;;;15.14;78.40;96029.25;5043679;28;20500;-76
2022/09/09 03:25:11;;;;;;;11.77;3.10;;;;;;;15.12;78.06;96022.53;5046756;28;20179;-76
2022/09/09 03:27:38;;;;;;;10.00;2.75;;;;;;;15.19;78.14;96027.38;5040579;28;20132;-77
2022/09/09 03:30:05;;;;;;;10.32;2.83;;;;;;;15.22;78.64;96027.47;5042116;28;20045;-77
2022/09/09 03:32:32;;;;;;;9.75;2.50;;;;;;;15.26;78.53;96022.09;5040878;28;20048;-76
2022/09/09 03:34:58;;;;;;;11.32;2.92;;;;;;;15.29;77.86;96022.16;5050451;28;20068;-77
2022/09/09 03:37:26;;;;;;;11.13;2.60;;;;;;;15.26;77.71;96017.38;5038375;28;20053;-77
2022/09/09 03:39:54;;;;;;;9.85;2.53;;;;;;;15.24;77.32;96022.41;5052546;28;20052;-77
2022/09/09 03:42:21;;;;;;;7.95;2.30;;;;;;;15.28;77.23;96020.56;5033635;28;20045;-77
2022/09/09 03:44:49;;;;;;;12.93;3.35;;;;;;;15.37;77.86;96018.44;5043035;28;20041;-76
2022/09/09 03:47:17;;;;;;;12.57;2.75;;;;;;;15.30;77.83;96012.78;5034545;28;20041;-76
2022/09/09 03:49:44;;;;;;;16.88;3.00;;;;;;;15.27;77.93;96010.75;5038101;28;20121;-76
2022/09/09 03:52:11;;;;;;;10.32;2.63;;;;;;;15.24;77.57;96013.41;5043909;28;20060;-77
2022/09/09 03:54:39;;;;;;;13.57;3.25;;;;;;;15.20;77.59;96013.34;5045142;28;20041;-77
2022/09/09 03:57:06;;;;;;;12.75;2.95;;;;;;;15.15;77.95;96010.84;5041803;28;20045;-76
2022/09/09 03:59:32;;;;;;;10.23;2.80;;;;;;;15.05;78.53;96008.66;5037409;28;20037;-77
2022/09/09 04:01:59;;;;;;;10.07;2.60;;;;;;;15.11;78.48;96009.97;5044004;28;20180;-76
2022/09/09 04:04:26;;;;;;;12.07;2.83;;;;;;;15.15;78.32;96010.84;5049168;28;20055;-76
2022/09/09 04:06:52;;;;;;;9.13;2.40;;;;;;;15.17;78.77;96008.53;5039870;28;20057;-77
2022/09/09 04:09:19;;;;;;;7.80;2.25;;;;;;;15.20;78.69;96007.06;5043258;28;20076;-76
2022/09/09 04:11:47;;;;;;;10.43;2.75;;;;;;;15.09;78.80;96006.81;5044866;28;20045;-77
2022/09/09 04:14:13;;;;;;;12.02;2.90;;;;;;;14.97;78.57;96009.63;5038022;28;20041;-77
2022/09/09 04:16:42;;;;;;;8.98;2.50;;;;;;;15.08;78.53;96010.66;5041281;28;20140;-76
2022/09/09 04:19:12;;;;;;;15.35;3.33;;;;;;;15.17;78.72;96014.03;5039418;28;20112;-76
2022/09/09 04:21:39;;;;;;;19.50;4.00;;;;;;;15.12;78.23;96017.84;5041981;28;20045;-77
2022/09/09 04:24:06;;;;;;;10.90;2.70;;;;;;;15.07;78.58;96007.13;5048167;28;20065;-77
2022/09/09 04:26:32;;;;;;;11.45;2.90;;;;;;;14.99;79.08;96012.81;5046623;28;20038;-77
2022/09/09 04:29:00;;;;;;;9.07;2.35;;;;;;;14.91;79.75;96011.84;5050951;28;20132;-77
2022/09/09 04:31:27;;;;;;;12.65;2.72;;;;;;;14.91;79.88;96011.03;5026367;28;20045;-76
2022/09/09 04:33:54;;;;;;;14.57;4.10;;;;;;;15.01;79.64;95999.53;5040780;28;20049;-77
2022/09/09 04:36:20;;;;;;;9.85;2.53;;;;;;;15.07;79.41;96003.59;5043657;28;20041;-76
2022/09/09 04:38:48;;;;;;;10.77;2.65;;;;;;;15.08;79.44;95999.69;5047342;28;20126;-77
2022/09/09 04:41:16;;;;;;;11.38;3.00;;;;;;;15.11;79.24;95999.00;5035702;28;20503;-77
2022/09/09 04:43:43;;;;;;;9.85;2.58;;;;;;;15.14;78.88;95998.31;5037619;28;20132;-76
2022/09/09 04:46:11;;;;;;;9.65;2.30;;;;;;;15.09;79.89;95993.88;5035030;28;20073;-77
2022/09/09 04:48:37;;;;;;;14.77;3.25;;;;;;;15.14;79.64;95992.81;5045048;28;20041;-76
2022/09/09 04:51:06;;;;;;;7.90;2.17;;;;;;;15.14;79.59;95992.81;5036467;28;20048;-76
2022/09/09 04:53:34;;;;;;;13.05;2.90;;;;;;;15.09;79.85;95991.13;5042126;28;20058;-77
2022/09/09 04:56:05;;;;;;;11.20;2.97;;;;;;;15.11;79.67;95994.31;5039681;28;20077;-77
2022/09/09 04:58:31;;;;;;;11.73;2.90;;;;;;;15.13;79.76;96002.97;5043771;28;20073;-76
2022/09/09 05:01:07;;;;;;;11.63;2.72;;;;;;;14.96;80.12;96013.50;5048062;28;20050;-77
2022/09/09 05:03:35;;;;;;;11.52;3.00;;;;;;;14.86;80.55;96010.16;5036587;28;20041;-77
2022/09/09 05:06:08;;;;;;;8.15;2.38;;;;;;;14.73;81.19;96005.91;5032345;28;20529;-76
2022/09/09 05:08:34;;;;;;;15.48;3.28;;;;;;;14.62;81.67;95999.38;5037185;28;20045;-77
2022/09/09 05:11:01;;;;;;;10.75;3.00;;;;;;;14.58;82.30;95999.28;5038808;28;20053;-77
2022/09/09 05:13:28;;;;;;;10.98;2.72;;;;;;;14.68;82.32;95997.16;5036228;28;20045;-77
2022/09/09 05:15:55;;;;;;;15.35;4.03;;;;;;;14.79;82.07;95999.03;5041251;28;20073;-78
2022/09/09 05:18:22;;;;;;;11.98;3.10;;;;;;;14.88;82.09;95996.91;5043340;28;20049;-82
2022/09/09 05:20:50;;;;;;;14.02;3.33;;;;;;;14.88;81.82;95991.41;5035583;28;20137;-80
2022/09/09 05:23:17;;;;;;;21.15;4.38;;;;;;;14.90;82.35;95993.78;5035003;28;20163;-79
2022/09/09 05:25:46;;;;;;;12.75;2.90;;;;;;;14.96;82.16;96002.56;5039929;28;20049;-76
2022/09/09 05:28:13;;;;;;;9.65;2.67;;;;;;;14.98;82.23;96000.25;5037813;28;20049;-77
2022/09/09 05:30:39;;;;;;;13.23;3.20;;;;;;;14.99;82.11;96007.34;5039205;28;20037;-76
2022/09/09 05:33:06;;;;;;;9.75;2.75;;;;;;;15.01;81.76;96013.25;5029466;28;20508;-77
2022/09/09 05:35:33;;;;;;;10.35;2.88;;;;;;;15.05;81.99;96014.13;5030107;28;20049;-77
2022/09/09 05:38:01;;;;;;;10.93;2.70;;;;;;;15.07;82.03;96020.06;5030389;28;20133;-76
2022/09/09 05:40:28;;;;;;;11.68;2.92;;;;;;;15.02;81.67;96018.38;5029900;28;20045;-77
2022/09/09 05:42:54;;;;;;;10.48;2.67;;;;;;;15.12;81.75;96017.03;5030166;28;20041;-77
2022/09/09 05:45:21;;;;;;;8.23;2.47;;;;;;;15.19;81.47;96027.38;5029746;28;20057;-78
2022/09/09 05:47:53;;;;;;;9.25;2.30;;;;;;;15.07;81.12;96031.03;5030662;28;20049;-76
2022/09/09 05:50:19;;;;;;;9.30;2.30;;;;;;;15.12;80.92;96034.28;5033182;28;20096;-77
2022/09/09 05:52:46;;;;;;;13.23;2.78;;;;;;;15.01;81.14;96032.44;5030553;28;20041;-77
2022/09/09 05:55:14;;;;;;;9.88;2.55;;;;;;;14.98;81.25;96028.47;5030105;28;20048;-77
2022/09/09 05:57:40;;;;;;;9.25;2.47;;;;;;;15.06;81.25;96026.69;5030657;28;20053;-77
2022/09/09 06:00:08;;;;;;;11.35;2.50;;;;;;;15.05;81.39;96022.38;5030106;28;20049;-77
2022/09/09 06:02:36;;;;;;;7.53;2.30;;;;;;;15.12;81.23;96017.84;5030456;28;20048;-77
2022/09/09 06:05:03;;;;;;;7.85;2.28;;;;;;;15.14;81.43;96020.25;5029950;28;20061;-77
2022/09/09 06:07:29;;;;;;;15.15;2.78;;;;;;;15.19;81.47;96014.50;5030097;28;20055;-77
2022/09/09 06:09:56;;;;;;;11.80;2.65;;;;;;;15.10;81.60;96022.88;5030465;28;20041;-77
2022/09/09 06:12:24;;;;;;;9.10;2.72;;;;;;;15.20;81.35;96024.31;5029909;28;20049;-77
2022/09/09 06:14:51;;;;;;;11.27;2.92;;;;;;;15.17;81.17;96025.00;5029936;28;20056;-77
2022/09/09 06:17:18;;;;;;;9.35;2.53;;;;;;;15.25;80.86;96021.28;5029833;28;20099;-76
2022/09/09 06:19:44;;;;;;;9.00;2.40;;;;;;;15.34;81.16;96030.09;5033092;28;20381;-77
2022/09/09 06:22:11;;;;;;;7.82;1.80;;;;;;;15.35;81.37;96020.75;5029727;28;20293;-77
2022/09/09 06:24:38;;;;;;;12.13;2.75;;;;;;;15.41;81.17;96024.00;5030175;28;20050;-77
2022/09/09 06:27:07;;;;;;;12.68;2.70;;;;;;;15.50;81.02;96024.59;5044989;28;20053;-77
2022/09/09 06:29:34;;;;;;;8.95;2.38;;;;;;;15.54;80.57;96021.94;5050096;28;20076;-77
2022/09/09 06:32:01;;;;;;;11.65;2.55;;;;;;;15.46;79.87;96021.00;5049873;28;20052;-77
2022/09/09 06:34:28;;;;;;;13.13;2.92;;;;;;;15.56;80.71;96014.16;5049505;28;20408;-76
2022/09/09 06:36:57;;;;;;;11.32;2.63;;;;;;;15.55;80.34;96012.53;5049935;28;20048;-77
2022/09/09 06:39:24;;;;;;;12.13;2.47;;;;;;;15.56;80.68;96022.38;5049183;28;20045;-77
2022/09/09 06:41:52;;;;;;;8.25;2.22;;;;;;;15.54;79.98;96021.94;5049777;28;20053;-77
2022/09/09 06:44:19;;;;;;;11.00;2.70;;;;;;;15.39;79.59;96026.28;5049316;28;20085;-77
2022/09/09 06:46:48;;;;;;;9.50;2.28;;;;;;;15.53;79.16;96020.34;5049636;28;20056;-77
2022/09/09 06:49:14;;;;;;;9.68;2.40;;;;;;;15.48;79.46;96023.38;5048175;28;20087;-77
2022/09/09 06:51:43;;;;;;;9.82;2.50;;;;;;;15.43;79.72;96032.66;5029947;28;20042;-77
2022/09/09 06:54:11;;;;;;;10.73;2.45;;;;;;;15.58;80.30;96039.28;5029158;28;20049;-77
2022/09/09 06:56:40;;;;;;;21.60;3.10;;;;;;;15.62;79.79;96040.16;5044742;28;20049;-77
2022/09/09 06:59:08;;;;;;;23.42;3.95;;;;;;;15.56;79.18;96050.63;5053239;28;20045;-76
2022/09/09 07:01:37;;;;;;;20.38;3.58;;;;;;;15.56;79.13;96047.09;5053701;28;20392;-77
2022/09/09 07:04:07;;;;;;;11.82;2.42;;;;;;;15.49;79.77;96036.72;5053284;28;20045;-77
2022/09/09 07:06:35;;;;;;;10.43;2.70;;;;;;;15.59;79.78;96038.13;5053838;28;20060;-77
2022/09/09 07:09:04;;;;;;;11.02;2.70;;;;;;;15.65;79.54;96033.97;5053235;28;20500;-77
2022/09/09 07:11:33;;;;;;;9.50;2.25;;;;;;;15.72;79.07;96027.88;5053417;28;20075;-77
2022/09/09 07:14:01;;;;;;;13.90;3.17;;;;;;;15.74;78.81;96033.78;5053351;28;20048;-76
2022/09/09 07:16:29;;;;;;;8.40;1.95;;;;;;;15.75;78.66;96033.41;5053242;28;20044;-77
2022/09/09 07:18:57;;;;;;;73.30;7.85;;;;;;;15.83;78.85;96037.13;5053274;28;20403;-77
2022/09/09 07:21:27;;;;;;;22.23;3.60;;;;;;;15.84;78.82;96039.50;5034281;28;20044;-77
2022/09/09 07:23:54;;;;;;;9.80;2.63;;;;;;;15.79;79.07;96039.00;5033354;28;20136;-77
2022/09/09 07:26:22;;;;;;;9.02;2.03;;;;;;;15.93;78.76;96049.50;5042087;28;20056;-77
2022/09/09 07:28:49;;;;;;;10.32;2.25;;;;;;;15.89;78.40;96049.41;5053208;28;20048;-77
2022/09/09 07:31:18;;;;;;;10.05;2.35;;;;;;;15.97;78.61;96055.84;5052673;28;20647;-77
2022/09/09 07:33:46;;;;;;;10.05;2.45;;;;;;;15.96;78.99;96062.47;5053212;28;20450;-77
2022/09/09 07:36:15;;;;;;;10.38;2.58;;;;;;;15.88;79.52;96094.50;5052706;28;20053;-77
2022/09/09 07:38:45;;;;;;;9.98;2.58;;;;;;;15.43;83.33;96105.94;5052889;28;20059;-77
2022/09/09 07:41:16;;;;;;;14.20;2.60;;;;;;;15.30;85.16;96114.28;5052620;28;20102;-77
2022/09/09 07:43:44;;;;;;;17.00;3.42;;;;;;;15.08;87.86;96125.84;5052957;28;20410;-77
2022/09/09 07:46:12;;;;;;;11.40;3.38;;;;;;;14.88;91.04;96127.69;5052593;28;20049;-77
2022/09/09 07:48:39;;;;;;;15.15;3.63;;;;;;;14.82;92.17;96129.88;5052775;28;20451;-77
2022/09/09 07:51:08;;;;;;;15.48;3.92;;;;;;;14.65;92.98;96135.66;5036107;28;20129;-76
2022/09/09 07:53:35;;;;;;;15.18;3.80;;;;;;;14.67;93.45;96133.41;5032777;28;20041;-77
2022/09/09 07:56:09;;;;;;;11.02;3.35;;;;;;;14.63;93.50;96132.50;5038986;28;20130;-76
2022/09/09 07:58:36;;;;;;;15.07;4.10;;;;;;;14.70;93.63;96127.19;5052762;28;20069;-77
2022/09/09 08:01:08;;;;;;;13.57;3.88;;;;;;;14.73;93.63;96142.97;5052193;28;20045;-76
2022/09/09 08:03:35;;;;;;;14.80;3.97;;;;;;;14.70;93.73;96138.16;5052610;28;20087;-77
2022/09/09 08:06:02;;;;;;;17.92;3.70;;;;;;;14.93;92.37;96129.34;5052405;28;20057;-77
2022/09/09 08:08:29;;;;;;;12.60;3.63;;;;;;;15.09;90.82;96141.19;5052280;28;20427;-77
2022/09/09 08:11:07;;;;;;;12.65;3.72;;;;;;;15.12;91.29;96137.72;5052464;28;20061;-77
2022/09/09 08:13:35;;;;;;;12.85;4.13;;;;;;;15.18;91.30;96135.50;5052152;28;20041;-77
2022/09/09 08:16:06;;;;;;;9.57;3.88;;;;;;;15.33;90.40;96135.50;5051985;28;20052;-77
2022/09/09 08:18:33;;;;;;;12.98;3.95;;;;;;;15.45;89.21;96145.59;5052266;28;20041;-76
2022/09/09 08:21:06;;;;;;;9.35;3.13;;;;;;;15.53;88.63;96152.06;5036772;28;20476;-77
2022/09/09 08:23:33;;;;;;;14.07;3.63;;;;;;;15.62;88.68;96145.25;5032174;28;20049;-77
2022/09/09 08:26:05;;;;;;;10.30;3.30;;;;;;;15.67;88.69;96146.97;5038528;28;20620;-77
2022/09/09 08:28:32;;;;;;;11.63;3.10;;;;;;;15.67;89.33;96146.97;5052067;28;20064;-76
2022/09/09 08:31:07;;;;;;;12.95;4.15;;;;;;;15.74;88.86;96152.63;5051891;28;20491;-76
2022/09/09 08:33:34;;;;;;;10.95;3.25;;;;;;;15.76;88.59;96161.28;5051952;28;20435;-77
2022/09/09 08:36:00;;;;;;;10.77;3.45;;;;;;;15.81;88.29;96161.00;5051964;28;20060;-77
2022/09/09 08:38:28;;;;;;;10.93;3.20;;;;;;;15.87;88.95;96165.09;5051775;28;20522;-77
2022/09/09 08:41:02;;;;;;;11.05;3.58;;;;;;;15.91;88.98;96168.69;5051810;28;20057;-77
2022/09/09 08:43:31;;;;;;;10.20;3.40;;;;;;;16.06;89.41;96160.78;5051497;28;20048;-76
2022/09/09 08:46:07;;;;;;;13.77;3.85;;;;;;;16.08;88.62;96172.25;5051699;28;20037;-77
2022/09/09 08:48:48;;;;;;;9.23;3.20;;;;;;;16.14;89.75;96173.56;5051718;28;20041;-76
2022/09/09 08:51:15;;;;;;;7.85;2.70;;;;;;;16.14;87.29;96165.31;5033944;28;20050;-77
2022/09/09 08:53:44;;;;;;;10.13;3.55;;;;;;;16.16;87.71;96173.97;5031660;28;20064;-76
2022/09/09 08:56:15;;;;;;;10.52;3.00;;;;;;;16.26;87.12;96167.94;5038875;28;20045;-76
2022/09/09 08:58:46;;;;;;;13.45;3.60;;;;;;;16.35;86.22;96167.72;5051580;28;20055;-77
2022/09/09 09:01:29;;;;;;;11.35;3.20;;;;;;;16.29;85.07;96172.72;5051076;28;20045;-77
2022/09/09 09:04:03;;;;;;;9.30;2.92;;;;;;;16.38;85.25;96176.03;5051553;28;20051;-77
2022/09/09 09:06:43;;;;;;;8.35;2.95;;;;;;;16.37;84.02;96179.94;5051135;28;20543;-77
2022/09/09 09:09:19;;;;;;;9.07;2.83;;;;;;;16.34;83.42;96163.38;5050937;28;20163;-76
2022/09/09 09:11:50;;;;;;;10.35;3.30;;;;;;;16.34;84.47;96168.88;5051426;28;20041;-76
2022/09/09 09:14:23;;;;;;;11.90;3.47;;;;;;;16.35;84.03;96167.72;5050785;28;20048;-76
2022/09/09 09:16:53;;;;;;;10.05;3.17;;;;;;;16.37;83.72;96168.16;5051296;28;20491;-77
2022/09/09 09:19:22;;;;;;;11.73;3.65;;;;;;;16.34;84.04;96157.88;5048348;28;20076;-76
2022/09/09 09:21:54;;;;;;;10.60;3.33;;;;;;;16.36;85.15;96167.38;5031595;28;20137;-77
2022/09/09 09:24:24;;;;;;;14.27;3.28;;;;;;;16.36;85.78;96156.38;5030794;28;20052;-76
2022/09/09 09:26:52;;;;;;;11.85;3.40;;;;;;;16.27;85.74;96153.03;5044516;28;20059;-76
2022/09/09 09:29:21;;;;;;;12.68;3.67;;;;;;;16.30;85.71;96155.06;5050475;28;20056;-76
2022/09/09 09:31:52;;;;;;;11.55;3.15;;;;;;;16.28;86.20;96157.34;5050812;28;20718;-76
2022/09/09 09:34:18;;;;;;;12.40;3.35;;;;;;;16.30;85.99;96155.06;5050467;28;20084;-76
2022/09/09 09:36:54;;;;;;;7.75;3.13;;;;;;;16.29;86.24;96153.47;5051039;28;20217;-76
2022/09/09 09:39:25;;;;;;;10.63;3.47;;;;;;;16.32;86.71;96149.19;5050295;28;20436;-76
2022/09/09 09:41:54;;;;;;;9.30;3.47;;;;;;;16.38;86.97;96143.06;5050876;28;20045;-75
2022/09/09 09:44:25;;;;;;;11.48;4.30;;;;;;;16.32;88.12;96139.00;5050236;28;20080;-76
2022/09/09 09:46:52;;;;;;;13.23;4.15;;;;;;;16.15;87.82;96142.97;5050505;28;20041;-77
2022/09/09 09:49:19;;;;;;;11.73;5.72;;;;;;;16.25;87.59;96143.56;5048370;28;20604;-76
2022/09/09 09:51:47;;;;;;;10.93;3.80;;;;;;;16.28;88.27;96153.81;5030641;28;20045;-76
2022/09/09 09:54:27;;;;;;;8.38;3.10;;;;;;;16.27;87.56;96160.47;5030136;28;20041;-76
2022/09/09 09:56:53;;;;;;;12.98;4.07;;;;;;;16.18;87.18;96155.16;5044307;28;20076;-77
2022/09/09 09:59:22;;;;;;;9.13;2.90;;;;;;;16.24;86.97;96170.25;5049821;28;20392;-77
2022/09/09 10:01:48;;;;;;;10.70;3.80;;;;;;;16.23;87.57;96163.13;5050545;28;20070;-77
2022/09/09 10:04:18;;;;;;;11.63;3.45;;;;;;;16.15;87.05;96166.91;5049952;28;20403;-77
2022/09/09 10:06:44;;;;;;;14.65;3.50;;;;;;;16.16;87.12;96179.47;5049995;28;20641;-76
2022/09/09 10:09:23;;;;;;;15.02;4.20;;;;;;;16.26;87.26;96180.88;5049732;28;20071;-77
2022/09/09 10:11:56;;;;;;;13.75;3.70;;;;;;;16.31;87.02;96181.38;5050437;28;20056;-77
2022/09/09 10:14:33;;;;;;;11.80;2.83;;;;;;;16.33;87.22;96187.31;5049699;28;20621;-78
2022/09/09 10:17:17;;;;;;;12.27;3.65;;;;;;;16.40;86.72;96179.22;5050227;28;20110;-77
2022/09/09 10:19:59;;;;;;;13.45;3.67;;;;;;;16.40;87.42;96175.69;5044709;28;20075;-77
2022/09/09 10:22:28;;;;;;;12.25;3.30;;;;;;;16.46;87.01;96170.72;5029871;28;20064;-77
2022/09/09 10:25:32;;;;;;;11.02;4.10;;;;;;;16.48;87.79;96171.91;5030138;28;20412;-77
2022/09/09 10:28:09;;;;;;;;;;;;;;;16.41;87.47;96158.84;5030407;28;20124;-78
2022/09/09 10:30:48;;;;;;;12.70;3.80;;;;;;;16.44;87.27;96155.38;5029121;28;19925;-77
2022/09/09 10:33:29;;;;;;;10.25;3.42;;;;;;;16.54;87.14;96155.94;5029577;28;20086;-77
2022/09/09 10:36:08;;;;;;;7.90;3.17;;;;;;;16.48;86.44;96162.88;5030036;28;20042;-77
2022/09/09 10:38:41;;;;;;;13.68;3.90;;;;;;;16.52;86.36;96170.06;5029885;28;20041;-76
2022/09/09 10:41:20;;;;;;;;;;;;;;;16.54;86.20;96175.19;5029828;28;20069;-77
2022/09/09 10:44:07;;;;;;;8.90;3.15;;;;;;;16.44;86.14;96176.53;5030064;28;19949;-77
2022/09/09 10:46:46;;;;;;;10.68;2.65;;;;;;;16.52;86.02;96163.75;5029483;28;20041;-76
2022/09/09 10:49:25;;;;;;;9.43;3.05;;;;;;;16.63;86.53;96164.78;5032059;28;20046;-76
2022/09/09 10:51:59;;;;;;;10.32;2.58;;;;;;;16.65;86.63;96163.28;5029926;28;20041;-76
2022/09/09 10:54:37;;;;;;;11.75;2.78;;;;;;;16.81;86.99;96160.47;5029333;28;20072;-77
2022/09/09 10:57:14;;;;;;;9.35;2.70;;;;;;;16.85;86.84;96169.56;5044533;28;20132;-76
2022/09/09 10:59:47;;;;;;;9.02;2.38;;;;;;;16.87;85.17;96181.03;5049757;28;20069;-77
2022/09/09 11:02:19;;;;;;;14.52;3.00;;;;;;;16.88;84.18;96171.59;5049323;28;20136;-77
2022/09/09 11:04:52;;;;;;;11.18;2.60;;;;;;;16.94;82.67;96169.34;5049617;28;20045;-77
2022/09/09 11:07:26;;;;;;;10.85;2.38;;;;;;;16.88;81.79;96171.59;5049140;28;20414;-77
2022/09/09 11:10:01;;;;;;;7.55;2.13;;;;;;;16.97;81.92;96156.84;5049682;28;20099;-76
2022/09/09 11:12:32;;;;;;;8.95;2.20;;;;;;;17.01;80.78;96163.19;5049510;28;20535;-76
2022/09/09 11:15:05;;;;;;;10.07;2.33;;;;;;;17.12;81.56;96166.94;5049448;28;20488;-76
2022/09/09 11:17:40;;;;;;;7.57;2.10;;;;;;;17.23;80.11;96165.19;5049470;28;20048;-76
2022/09/09 11:20:11;;;;;;;12.68;2.47;;;;;;;17.18;79.29;96160.00;5040850;28;20076;-78
2022/09/09 11:22:43;;;;;;;11.52;2.53;;;;;;;17.35;79.72;96165.00;5029934;28;20056;-76
2022/09/09 11:25:17;;;;;;;10.73;2.42;;;;;;;17.53;78.42;96161.75;5029316;28;20527;-76
2022/09/09 11:27:59;;;;;;;9.07;2.30;;;;;;;17.46;77.22;96162.44;5029676;28;20041;-76
2022/09/09 11:30:37;;;;;;;10.10;2.50;;;;;;;17.72;77.56;96148.75;5029385;28;20038;-77
2022/09/09 11:33:38;;;;;;;9.35;2.40;;;;;;;17.80;78.16;96149.69;5029215;28;20096;-76
2022/09/09 11:36:22;;;;;;;10.38;2.67;;;;;;;17.95;76.53;96148.69;5029060;28;20068;-76
2022/09/09 11:38:52;;;;;;;7.30;2.05;;;;;;;18.26;76.69;96144.03;5029716;28;20053;-76
2022/09/09 11:41:21;;;;;;;10.20;2.70;;;;;;;18.42;75.53;96136.38;5030010;28;20053;-77
2022/09/09 11:43:51;;;;;;;10.82;3.00;;;;;;;18.51;73.61;96139.66;5033343;28;20100;-77
2022/09/09 11:46:20;;;;;;;8.23;2.10;;;;;;;18.38;73.14;96140.28;5032716;28;20452;-76